createdAt,value
2018-11-29T03:52:53.731Z,1.80
2018-11-29T03:55:27.611Z,5.50
2018-11-29T03:58:01.707Z,5.70
2018-11-29T04:00:35.567Z,5.80
2018-11-29T04:03:09.610Z,5.80
2018-11-29T04:05:43.607Z,5.70
2018-11-29T04:08:17.729Z,5.60
2018-11-29T04:10:51.766Z,5.80
2018-11-29T04:13:25.887Z,5.70
2018-11-29T04:15:59.849Z,5.80
2018-11-29T04:18:33.900Z,5.80
2018-11-29T04:21:08.620Z,5.90
2018-11-29T04:23:42.524Z,5.90
2018-11-29T04:26:16.492Z,5.90
2018-11-29T04:28:50.564Z,6.20
2018-11-29T04:31:24.640Z,6.20
2018-11-29T04:33:58.600Z,6.20
2018-11-29T04:36:32.657Z,6.10
2018-11-29T04:39:06.901Z,6.20
2018-11-29T04:41:40.952Z,6.30
2018-11-29T04:44:14.943Z,6.30
2018-11-29T04:46:48.964Z,6.20
2018-11-29T04:49:23.912Z,6.20
2018-11-29T04:51:57.935Z,6.20
2018-11-29T04:54:31.914Z,6.20
2018-11-29T04:57:05.979Z,6.20
2018-11-29T04:59:40.048Z,6.20
2018-11-29T05:02:14.112Z,5.90
2018-11-29T05:04:48.948Z,6.30
2018-11-29T05:07:22.871Z,6.30
2018-11-29T05:09:56.882Z,6.30
2018-11-29T05:12:30.889Z,6.30
2018-11-29T05:15:05.750Z,6.40
2018-11-29T05:17:39.686Z,6.40
2018-11-29T05:20:13.733Z,6.40
2018-11-29T05:22:48.622Z,6.30
2018-11-29T05:25:22.549Z,6.30
2018-11-29T05:27:57.401Z,6.00
2018-11-29T05:30:32.151Z,5.80
2018-11-29T05:33:06.090Z,5.80
2018-11-29T05:35:40.082Z,6.00
2018-11-29T05:38:14.152Z,6.00
2018-11-29T05:40:48.197Z,6.10
2018-11-29T05:43:22.294Z,6.20
2018-11-29T05:45:56.377Z,6.20
2018-11-29T05:48:30.399Z,6.10
2018-11-29T05:51:04.514Z,6.00
2018-11-29T05:53:38.591Z,5.90
2018-11-29T05:56:12.839Z,5.60
2018-11-29T05:58:46.929Z,5.70
2018-11-29T06:01:21.608Z,5.40
2018-11-29T06:03:55.508Z,5.50
2018-11-29T06:06:30.367Z,5.70
2018-11-29T06:09:04.441Z,5.70
2018-11-29T06:11:38.419Z,5.50
2018-11-29T06:14:12.502Z,5.30
2018-11-29T06:16:46.518Z,5.20
2018-11-29T06:19:20.500Z,5.20
2018-11-29T06:21:54.583Z,5.50
2018-11-29T06:24:28.746Z,5.20
2018-11-29T06:27:02.876Z,5.00
2018-11-29T06:29:36.893Z,5.20
2018-11-29T06:32:11.016Z,5.40
2018-11-29T06:34:45.055Z,5.40
2018-11-29T06:37:19.084Z,5.50
2018-11-29T06:39:53.165Z,5.60
2018-11-29T06:42:27.276Z,5.70
2018-11-29T06:45:01.255Z,5.80
2018-11-29T06:47:35.403Z,5.90
2018-11-29T06:50:09.503Z,5.50
2018-11-29T06:52:43.682Z,5.50
2018-11-29T06:55:17.736Z,5.70
2018-11-29T06:57:52.664Z,5.70
2018-11-29T07:00:26.779Z,5.70
2018-11-29T07:03:04.139Z,5.50
2018-11-29T07:05:38.140Z,5.30
2018-11-29T07:08:12.315Z,5.20
2018-11-29T07:10:46.273Z,5.20
2018-11-29T07:13:21.496Z,5.20
2018-11-29T07:15:56.383Z,5.60
2018-11-29T07:18:30.511Z,5.60
2018-11-29T07:24:13.617Z,6.00
2018-11-29T07:26:47.672Z,6.00
2018-11-29T07:29:21.716Z,6.30
2018-11-29T07:31:55.603Z,6.40
2018-11-29T07:34:30.456Z,6.60
2018-11-29T07:37:04.374Z,6.60
2018-11-29T07:39:38.383Z,6.60
2018-11-29T07:42:12.378Z,6.60
2018-11-29T07:44:47.220Z,6.50
2018-11-29T07:47:21.157Z,6.50
2018-11-29T07:49:55.181Z,6.70
2018-11-29T07:52:29.143Z,6.70
2018-11-29T07:55:03.244Z,6.30
2018-11-29T07:57:37.252Z,6.30
2018-11-29T08:00:11.551Z,5.90
2018-11-29T08:02:45.675Z,6.00
2018-11-29T08:05:19.713Z,6.20
2018-11-29T08:10:40.388Z,6.50
2018-11-29T08:13:17.745Z,6.60
2018-11-29T08:16:01.372Z,6.50
2018-11-29T08:18:35.405Z,6.70
2018-11-29T08:21:13.164Z,6.70
2018-11-29T08:23:56.858Z,5.80
2018-11-29T08:26:31.803Z,5.80
2018-11-29T08:29:05.838Z,5.80
2018-11-29T08:31:40.035Z,5.70
2018-11-29T08:34:14.010Z,5.70
2018-11-29T08:36:47.957Z,5.80
2018-11-29T08:39:23.067Z,5.90
2018-11-29T08:41:57.236Z,6.00
2018-11-29T08:44:31.405Z,6.00
2018-11-29T08:47:06.300Z,6.20
2018-11-29T08:49:40.320Z,5.90
2018-11-29T08:52:15.183Z,5.70
2018-11-29T08:54:49.212Z,5.70
2018-11-29T08:57:23.176Z,5.70
2018-11-29T08:59:57.287Z,5.70
2018-11-29T09:02:31.398Z,5.80
2018-11-29T09:05:05.620Z,5.90
2018-11-29T09:07:39.612Z,6.00
2018-11-29T09:10:13.789Z,6.10
2018-11-29T09:12:47.847Z,6.30
2018-11-29T09:15:22.001Z,6.40
2018-11-29T09:17:56.748Z,6.70
2018-11-29T09:20:30.851Z,6.70
2018-11-29T09:23:05.175Z,6.50
2018-11-29T09:25:40.111Z,6.60
2018-11-29T09:28:14.229Z,6.60
2018-11-29T09:30:48.280Z,6.80
2018-11-29T09:33:26.473Z,6.90
2018-11-29T09:36:00.649Z,7.00
2018-11-29T09:38:34.736Z,6.80
2018-11-29T09:41:08.873Z,6.90
2018-11-29T09:43:42.939Z,6.80
2018-11-29T09:46:17.003Z,6.70
2018-11-29T09:48:50.968Z,6.70
2018-11-29T09:51:25.040Z,6.80
2018-11-29T09:53:59.115Z,6.60
2018-11-29T09:56:33.251Z,6.60
2018-11-29T09:59:07.242Z,6.50
2018-11-29T10:01:42.001Z,6.60
2018-11-29T10:04:16.191Z,6.60
2018-11-29T10:06:50.312Z,7.00
2018-11-29T10:09:24.391Z,7.00
2018-11-29T10:11:58.395Z,6.80
2018-11-29T10:14:32.307Z,6.70
2018-11-29T10:17:06.408Z,6.80
2018-11-29T10:19:41.422Z,7.10
2018-11-29T10:22:15.444Z,7.10
2018-11-29T10:24:49.382Z,7.10
2018-11-29T10:27:23.453Z,7.30
2018-11-29T10:29:57.557Z,7.10
2018-11-29T10:32:31.664Z,7.10
2018-11-29T10:35:06.385Z,7.10
2018-11-29T10:37:40.462Z,7.10
2018-11-29T10:40:14.561Z,7.30
2018-11-29T10:42:48.738Z,7.30
2018-11-29T10:45:22.724Z,7.40
2018-11-29T10:47:56.763Z,7.10
2018-11-29T10:50:30.826Z,7.10
2018-11-29T10:53:05.037Z,7.30
2018-11-29T10:55:39.136Z,7.40
2018-11-29T10:58:13.353Z,7.60
2018-11-29T11:00:47.515Z,7.70
2018-11-29T11:03:22.212Z,8.10
2018-11-29T11:05:56.387Z,8.10
2018-11-29T11:08:30.416Z,7.80
2018-11-29T11:11:04.531Z,8.00
2018-11-29T11:13:39.427Z,8.00
2018-11-29T11:16:13.507Z,8.10
2018-11-29T11:18:47.624Z,8.40
2018-11-29T11:21:21.736Z,8.40
2018-11-29T11:23:59.338Z,8.40
2018-11-29T11:26:29.912Z,8.50
2018-11-29T11:29:04.096Z,8.40
2018-11-29T11:31:38.888Z,8.30
2018-11-29T11:34:13.610Z,8.30
2018-11-29T11:36:47.760Z,8.10
2018-11-29T11:39:21.735Z,8.30
2018-11-29T11:41:55.806Z,8.20
2018-11-29T11:44:29.924Z,8.10
2018-11-29T11:47:04.341Z,8.10
2018-11-29T11:49:38.419Z,8.20
2018-11-29T11:52:13.175Z,7.80
2018-11-29T11:54:47.319Z,7.80
2018-11-29T11:57:21.490Z,7.80
2018-11-29T11:59:55.626Z,8.30
2018-11-29T12:02:30.523Z,7.80
2018-11-29T12:05:04.711Z,7.80
2018-11-29T12:07:38.740Z,7.80
2018-11-29T12:10:12.869Z,7.90
2018-11-29T12:12:47.065Z,7.80
2018-11-29T12:15:22.003Z,7.70
2018-11-29T12:17:56.864Z,7.60
2018-11-29T12:20:30.915Z,7.50
2018-11-29T12:23:05.130Z,7.60
2018-11-29T12:25:39.327Z,7.50
2018-11-29T12:28:13.342Z,7.70
2018-11-29T12:30:47.402Z,7.60
2018-11-29T12:33:21.476Z,7.60
2018-11-29T12:35:55.468Z,7.60
2018-11-29T12:38:31.780Z,7.50
2018-11-29T12:41:05.704Z,7.60
2018-11-29T12:43:39.852Z,7.70
2018-11-29T12:46:14.592Z,7.50
2018-11-29T12:48:49.181Z,7.50
2018-11-29T12:51:23.349Z,7.50
2018-11-29T12:53:57.452Z,7.50
2018-11-29T12:56:31.444Z,7.50
2018-11-29T12:59:06.700Z,7.50
2018-11-29T13:01:40.775Z,7.50
2018-11-29T13:04:14.917Z,7.50
2018-11-29T13:06:48.877Z,7.80
2018-11-29T13:09:22.990Z,7.90
2018-11-29T13:11:57.067Z,7.90
2018-11-29T13:14:31.109Z,7.80
2018-11-29T13:17:05.991Z,7.80
2018-11-29T13:19:40.100Z,7.80
2018-11-29T13:22:14.229Z,7.70
2018-11-29T13:24:48.333Z,7.50
2018-11-29T13:27:22.331Z,7.50
2018-11-29T13:29:57.285Z,7.80
2018-11-29T13:32:31.236Z,7.90
2018-11-29T13:35:05.353Z,7.70
2018-11-29T13:37:39.936Z,7.70
2018-11-29T13:40:14.188Z,7.50
2018-11-29T13:42:48.225Z,7.40
2018-11-29T13:45:24.409Z,7.50
2018-11-29T13:47:59.174Z,7.70
2018-11-29T13:50:33.975Z,7.70
2018-11-29T13:53:08.817Z,7.80
2018-11-29T13:55:42.879Z,7.80
2018-11-29T13:58:16.820Z,7.90
2018-11-29T14:00:51.215Z,8.10
2018-11-29T14:03:25.217Z,8.30
2018-11-29T14:05:59.164Z,8.10
2018-11-29T14:08:33.240Z,8.00
2018-11-29T14:11:07.336Z,8.10
2018-11-29T14:13:41.292Z,8.10
2018-11-29T14:16:15.291Z,7.70
2018-11-29T14:18:49.489Z,7.40
2018-11-29T14:21:23.715Z,7.50
2018-11-29T14:23:57.665Z,7.40
2018-11-29T14:26:31.641Z,7.20
2018-11-29T14:29:05.782Z,7.10
2018-11-29T14:31:40.520Z,7.10
2018-11-29T14:34:14.632Z,7.10
2018-11-29T14:36:48.688Z,7.00
2018-11-29T14:39:22.809Z,7.10
2018-11-29T14:41:56.964Z,7.20
2018-11-29T14:44:31.100Z,7.20
2018-11-29T14:47:05.271Z,7.40
2018-11-29T14:49:40.188Z,7.70
2018-11-29T14:52:14.335Z,7.70
2018-11-29T14:54:48.447Z,7.60
2018-11-29T14:57:22.500Z,7.70
2018-11-29T14:59:56.537Z,7.60
2018-11-29T15:02:30.450Z,7.50
2018-11-29T15:05:07.764Z,7.80
2018-11-29T15:07:38.615Z,7.80
2018-11-29T15:10:12.739Z,7.40
2018-11-29T15:12:46.713Z,7.50
2018-11-29T15:15:20.720Z,7.40
2018-11-29T15:17:54.748Z,7.30
2018-11-29T15:20:28.979Z,7.20
2018-11-29T15:23:02.997Z,7.20
2018-11-29T15:25:36.987Z,7.20
2018-11-29T15:28:10.938Z,7.10
2018-11-29T15:30:45.009Z,7.30
2018-11-29T15:33:19.152Z,7.30
2018-11-29T15:35:53.119Z,7.20
2018-11-29T15:38:27.519Z,7.10
2018-11-29T15:41:01.468Z,7.10
2018-11-29T15:43:35.451Z,6.90
2018-11-29T15:46:09.575Z,6.90
2018-11-29T15:48:43.697Z,6.90
2018-11-29T15:51:17.749Z,6.90
2018-11-29T15:53:52.619Z,6.80
2018-11-29T15:56:26.795Z,6.80
2018-11-29T15:59:01.155Z,6.80
2018-11-29T16:01:35.904Z,6.70
2018-11-29T16:04:10.056Z,6.70
2018-11-29T16:06:45.032Z,7.00
2018-11-29T16:09:19.187Z,6.90
2018-11-29T16:11:53.289Z,6.90
2018-11-29T16:14:27.412Z,6.80
2018-11-29T16:17:01.578Z,6.80
2018-11-29T16:19:35.631Z,6.80
2018-11-29T16:22:09.734Z,6.70
2018-11-29T16:24:43.749Z,6.80
2018-11-29T16:27:17.927Z,6.80
2018-11-29T16:29:52.040Z,6.80
2018-11-29T16:32:26.044Z,6.80
2018-11-29T16:35:00.188Z,7.00
2018-11-29T16:37:34.199Z,7.10
2018-11-29T16:40:08.377Z,7.10
2018-11-29T16:42:42.455Z,7.00
2018-11-29T16:45:16.586Z,7.10
2018-11-29T16:47:50.758Z,7.10
2018-11-29T16:50:24.896Z,7.10
2018-11-29T16:52:59.728Z,7.10
2018-11-29T16:55:33.661Z,7.10
2018-11-29T16:58:07.739Z,7.20
2018-11-29T17:00:41.860Z,7.20
2018-11-29T17:03:16.034Z,7.30
2018-11-29T17:05:49.992Z,7.40
2018-11-29T17:08:24.225Z,7.60
2018-11-29T17:10:58.936Z,7.80
2018-11-29T17:13:33.008Z,7.80
2018-11-29T17:16:07.071Z,7.90
2018-11-29T17:18:41.123Z,7.90
2018-11-29T17:21:15.186Z,7.90
2018-11-29T17:23:49.324Z,7.30
2018-11-29T17:26:23.482Z,7.20
2018-11-29T17:28:57.619Z,6.80
2018-11-29T17:31:33.412Z,7.10
2018-11-29T17:34:08.386Z,7.20
2018-11-29T17:36:42.324Z,7.20
2018-11-29T17:39:16.353Z,7.40
2018-11-29T17:41:50.463Z,7.40
2018-11-29T17:44:25.476Z,7.40
2018-11-29T17:46:59.485Z,7.40
2018-11-29T17:49:33.616Z,7.30
2018-11-29T17:52:07.684Z,7.40
2018-11-29T17:54:41.729Z,7.40
2018-11-29T17:57:15.819Z,7.50
2018-11-29T17:59:49.971Z,7.50
2018-11-29T18:02:26.802Z,7.40
2018-11-29T18:05:00.979Z,7.40
2018-11-29T18:07:35.076Z,7.20
2018-11-29T18:10:09.173Z,7.40
2018-11-29T18:12:43.896Z,7.50
2018-11-29T18:15:17.980Z,7.40
2018-11-29T18:17:52.140Z,7.40
2018-11-29T18:20:26.123Z,7.30
2018-11-29T18:23:00.123Z,7.30
2018-11-29T18:25:34.237Z,7.30
2018-11-29T18:28:09.135Z,7.20
2018-11-29T18:30:43.991Z,7.20
2018-11-29T18:33:18.141Z,7.20
2018-11-29T18:35:52.127Z,7.20
2018-11-29T18:38:26.276Z,7.10
2018-11-29T18:41:01.195Z,7.10
2018-11-29T18:43:35.279Z,7.10
2018-11-29T18:46:09.340Z,7.10
2018-11-29T18:48:43.472Z,7.10
2018-11-29T18:51:17.648Z,7.10
2018-11-29T18:53:52.355Z,7.10
2018-11-29T18:56:26.505Z,7.20
2018-11-29T18:59:00.554Z,7.10
2018-11-29T19:01:34.751Z,7.10
2018-11-29T19:04:09.522Z,6.90
2018-11-29T19:06:44.389Z,6.40
2018-11-29T19:09:18.459Z,6.40
2018-11-29T19:11:52.403Z,6.50
2018-11-29T19:14:26.517Z,6.00
2018-11-29T19:17:00.504Z,5.90
2018-11-29T19:19:34.620Z,6.30
2018-11-29T19:22:08.751Z,6.10
2018-11-29T19:24:42.942Z,6.20
2018-11-29T19:27:17.012Z,6.30
2018-11-29T19:29:51.799Z,6.50
2018-11-29T19:32:25.925Z,6.50
2018-11-29T19:35:00.038Z,6.50
2018-11-29T19:37:34.049Z,6.50
2018-11-29T19:40:08.145Z,6.50
2018-11-29T19:42:42.280Z,6.40
2018-11-29T19:45:16.400Z,6.50
2018-11-29T19:47:50.430Z,6.50
2018-11-29T19:50:24.629Z,6.30
2018-11-29T19:52:59.467Z,6.20
2018-11-29T19:55:33.411Z,6.20
2018-11-29T19:58:07.513Z,6.10
2018-11-29T20:00:41.688Z,5.90
2018-11-29T20:03:15.717Z,5.60
2018-11-29T20:05:49.840Z,5.70
2018-11-29T20:08:23.823Z,5.80
2018-11-29T20:10:57.989Z,5.90
2018-11-29T20:13:32.160Z,6.00
2018-11-29T20:16:06.273Z,6.00
2018-11-29T20:18:40.395Z,5.60
2018-11-29T20:21:14.376Z,5.90
2018-11-29T20:23:48.386Z,6.10
2018-11-29T20:26:23.320Z,6.00
2018-11-29T20:28:57.460Z,6.00
2018-11-29T20:31:31.921Z,6.10
2018-11-29T20:34:06.108Z,6.10
2018-11-29T20:36:40.262Z,6.10
2018-11-29T20:39:14.347Z,5.90
2018-11-29T20:41:48.416Z,5.80
2018-11-29T20:44:22.376Z,5.80
2018-11-29T20:46:56.724Z,5.70
2018-11-29T20:49:31.576Z,5.90
2018-11-29T20:52:05.723Z,5.80
2018-11-29T20:54:39.886Z,5.70
2018-11-29T20:57:13.961Z,5.70
2018-11-29T20:59:48.195Z,5.30
2018-11-29T21:02:22.323Z,5.30
2018-11-29T21:04:56.436Z,5.30
2018-11-29T21:07:30.608Z,5.40
2018-11-29T21:10:04.839Z,5.30
2018-11-29T21:12:38.971Z,5.40
2018-11-29T21:15:13.008Z,5.60
2018-11-29T21:17:47.100Z,5.60
2018-11-29T21:20:21.326Z,5.70
2018-11-29T21:22:55.611Z,5.40
2018-11-29T21:25:30.531Z,5.30
2018-11-29T21:28:05.536Z,5.40
2018-11-29T21:30:39.508Z,5.30
2018-11-29T21:33:14.549Z,5.40
2018-11-29T21:35:49.045Z,5.40
2018-11-29T21:38:24.137Z,5.30
2018-11-29T21:40:58.222Z,5.30
2018-11-29T21:43:33.193Z,5.20
2018-11-29T21:46:07.267Z,5.20
2018-11-29T21:48:41.353Z,5.30
2018-11-29T21:51:15.531Z,5.20
2018-11-29T21:53:49.689Z,5.40
2018-11-29T21:56:23.764Z,5.20
2018-11-29T21:58:57.903Z,5.50
2018-11-29T22:01:31.996Z,5.30
2018-11-29T22:04:06.004Z,5.40
2018-11-29T22:06:40.355Z,5.10
2018-11-29T22:09:14.414Z,5.10
2018-11-29T22:11:48.409Z,5.40
2018-11-29T22:14:23.102Z,5.60
2018-11-29T22:16:57.946Z,5.50
2018-11-29T22:19:32.121Z,5.50
2018-11-29T22:22:06.295Z,5.60
2018-11-29T22:24:40.351Z,5.70
2018-11-29T22:27:14.376Z,5.50
2018-11-29T22:29:48.459Z,5.30
2018-11-29T22:32:22.544Z,5.30
2018-11-29T22:34:56.556Z,5.50
2018-11-29T22:37:31.425Z,5.40
2018-11-29T22:40:05.594Z,5.40
2018-11-29T22:42:39.543Z,5.50
2018-11-29T22:45:13.711Z,5.70
2018-11-29T22:47:47.612Z,5.60
2018-11-29T22:50:21.568Z,5.40
2018-11-29T22:52:55.681Z,5.50
2018-11-29T22:55:29.804Z,5.60
2018-11-29T22:58:03.725Z,5.70
2018-11-29T23:00:37.935Z,5.50
2018-11-29T23:03:12.717Z,5.40
2018-11-29T23:05:46.753Z,5.40
2018-11-29T23:08:20.693Z,5.00
2018-11-29T23:10:54.668Z,4.90
2018-11-29T23:13:28.692Z,5.00
2018-11-29T23:16:02.620Z,4.90
2018-11-29T23:18:37.350Z,5.20
2018-11-29T23:21:11.477Z,5.30
2018-11-29T23:23:45.394Z,5.10
2018-11-29T23:26:19.489Z,4.90
2018-11-29T23:28:53.568Z,5.20
2018-11-29T23:31:27.670Z,4.90
2018-11-29T23:34:01.916Z,5.00
2018-11-29T23:36:35.932Z,5.10
2018-11-29T23:39:10.019Z,5.20
2018-11-29T23:41:44.148Z,5.10
2018-11-29T23:44:18.924Z,5.10
2018-11-29T23:46:53.080Z,5.00
2018-11-29T23:49:27.844Z,5.10
2018-11-29T23:52:02.684Z,5.10
2018-11-29T23:54:36.768Z,5.00
2018-11-29T23:57:10.691Z,5.10
2018-11-29T23:59:44.688Z,5.20
